createdAt,value
2022-10-01T00:00:09.506Z,5.6
2022-10-01T00:03:09.914Z,5.4
2022-10-01T00:06:09.495Z,5.4
2022-10-01T00:09:09.568Z,5.4
2022-10-01T00:12:09.682Z,5.3
2022-10-01T00:15:19.886Z,5.3
2022-10-01T00:18:09.507Z,5.4
2022-10-01T00:21:09.980Z,5.4
2022-10-01T00:24:09.545Z,5.4
2022-10-01T00:27:09.512Z,5.4
2022-10-01T00:30:09.560Z,5.5
2022-10-01T00:33:09.457Z,5.7
2022-10-01T00:36:09.552Z,5.8
2022-10-01T00:39:09.866Z,5.9
2022-10-01T00:42:09.487Z,5.9
2022-10-01T00:45:09.547Z,6.1
2022-10-01T00:48:09.621Z,6.2
2022-10-01T00:51:09.462Z,6.3
2022-10-01T00:54:09.575Z,6.3
2022-10-01T00:57:09.462Z,6.4
2022-10-01T01:00:09.503Z,6.3
2022-10-01T01:03:09.498Z,6.3
2022-10-01T01:06:09.498Z,6.3
2022-10-01T01:09:09.523Z,6.4
2022-10-01T01:12:09.467Z,6.4
2022-10-01T01:15:09.636Z,6.4
2022-10-01T01:18:09.505Z,6.4
2022-10-01T01:21:09.442Z,6.4
2022-10-01T01:24:09.457Z,6.4
2022-10-01T01:27:09.470Z,6.4
2022-10-01T01:30:09.488Z,6.4
2022-10-01T01:33:09.431Z,6.5
2022-10-01T01:36:09.501Z,7.2
2022-10-01T01:39:09.493Z,7.9
2022-10-01T01:42:09.492Z,8.4
2022-10-01T01:45:09.589Z,8.6
2022-10-01T01:48:09.508Z,8.6
2022-10-01T01:51:09.546Z,8.6
2022-10-01T01:54:09.473Z,8.8
2022-10-01T01:57:09.504Z,8.8
2022-10-01T02:00:09.492Z,8.9
2022-10-01T02:03:09.576Z,8.9
2022-10-01T02:06:09.490Z,8.8
2022-10-01T02:09:09.537Z,8.8
2022-10-01T02:12:09.726Z,8.7
2022-10-01T02:15:09.547Z,8.8
2022-10-01T02:18:09.519Z,8.6
2022-10-01T02:21:09.487Z,8.6
2022-10-01T02:24:09.509Z,8.7
2022-10-01T02:27:09.462Z,8.8
2022-10-01T02:30:09.540Z,8.6
2022-10-01T02:33:09.508Z,8.5
2022-10-01T02:36:09.519Z,8.4
2022-10-01T02:39:09.501Z,8.4
2022-10-01T02:42:09.515Z,8.4
2022-10-01T02:45:09.454Z,8.3
2022-10-01T02:48:09.450Z,8.1
2022-10-01T02:51:09.437Z,8.1
2022-10-01T02:54:09.551Z,8.3
2022-10-01T02:57:09.478Z,8.6
2022-10-01T03:00:09.537Z,8.8
2022-10-01T03:03:09.699Z,8.9
2022-10-01T03:06:09.524Z,9.2
2022-10-01T03:09:09.510Z,9.2
2022-10-01T03:12:09.524Z,9.3
2022-10-01T03:15:09.500Z,9.6
2022-10-01T03:18:09.562Z,9.8
2022-10-01T03:21:09.505Z,9.9
2022-10-01T03:24:09.515Z,9.9
2022-10-01T03:27:09.492Z,10
2022-10-01T03:30:09.547Z,10.3
2022-10-01T03:33:09.535Z,10.4
2022-10-01T03:36:09.456Z,10.6
2022-10-01T03:39:09.504Z,10.5
2022-10-01T03:42:09.564Z,10.6
2022-10-01T03:45:09.472Z,10.4
2022-10-01T03:48:09.472Z,10.3
2022-10-01T03:51:09.490Z,10.2
2022-10-01T03:54:09.494Z,10.4
2022-10-01T03:57:09.475Z,10.6
2022-10-01T04:00:09.615Z,10.8
2022-10-01T04:03:10.057Z,10.9
2022-10-01T04:06:09.452Z,11
2022-10-01T04:09:09.484Z,11
2022-10-01T04:12:09.500Z,11.1
2022-10-01T04:15:09.498Z,11
2022-10-01T04:18:09.501Z,11
2022-10-01T04:21:09.466Z,11
2022-10-01T04:24:09.458Z,11
2022-10-01T04:27:09.448Z,11.1
2022-10-01T04:30:09.534Z,11.1
2022-10-01T04:33:09.520Z,11.2
2022-10-01T04:36:09.459Z,11.2
2022-10-01T04:39:11.866Z,11.3
2022-10-01T04:42:09.502Z,11.2
2022-10-01T04:45:09.574Z,11.2
2022-10-01T04:48:09.542Z,11.3
2022-10-01T04:51:09.491Z,11.3
2022-10-01T04:54:09.617Z,11.3
2022-10-01T04:57:09.440Z,11.3
2022-10-01T05:00:09.567Z,11.4
2022-10-01T05:03:09.427Z,11.3
2022-10-01T05:06:09.515Z,11.4
2022-10-01T05:09:09.518Z,11.3
2022-10-01T05:12:09.530Z,11.4
2022-10-01T05:15:09.547Z,11.6
2022-10-01T05:18:09.500Z,11.7
2022-10-01T05:21:09.561Z,11.8
2022-10-01T05:24:10.121Z,11.9
2022-10-01T05:27:09.521Z,11.9
2022-10-01T05:30:09.510Z,11.8
2022-10-01T05:33:09.586Z,11.6
2022-10-01T05:36:09.575Z,11.6
2022-10-01T05:39:09.459Z,11.4
2022-10-01T05:42:15.355Z,11.3
2022-10-01T05:45:09.587Z,11.3
2022-10-01T05:48:09.580Z,11.3
2022-10-01T05:51:09.514Z,11.3
2022-10-01T05:54:09.560Z,11.1
2022-10-01T05:57:09.509Z,10.9
2022-10-01T06:00:09.607Z,10.9
2022-10-01T06:03:10.190Z,10.7
2022-10-01T06:06:09.532Z,10.6
2022-10-01T06:09:09.537Z,10.4
2022-10-01T06:12:09.538Z,10.4
2022-10-01T06:15:09.521Z,10.3
2022-10-01T06:18:09.697Z,10.2
2022-10-01T06:21:09.497Z,10.1
2022-10-01T06:24:09.553Z,10.1
2022-10-01T06:27:09.564Z,10
2022-10-01T06:30:09.516Z,10
2022-10-01T06:33:09.557Z,10
2022-10-01T06:36:09.550Z,10.1
2022-10-01T06:39:09.595Z,9.9
2022-10-01T06:42:09.549Z,9.9
2022-10-01T06:45:09.535Z,9.9
2022-10-01T06:48:09.558Z,9.9
2022-10-01T06:51:09.494Z,9.9
2022-10-01T06:54:09.515Z,9.8
2022-10-01T06:57:09.649Z,9.8
2022-10-01T07:00:09.610Z,9.8
2022-10-01T07:03:09.631Z,9.8
2022-10-01T07:06:09.528Z,9.8
2022-10-01T07:09:09.500Z,9.8
2022-10-01T07:12:09.631Z,9.7
2022-10-01T07:15:09.493Z,9.8
2022-10-01T07:18:09.722Z,9.8
2022-10-01T07:21:09.527Z,9.8
2022-10-01T07:24:09.507Z,9.8
2022-10-01T07:27:16.294Z,9.8
2022-10-01T07:30:09.514Z,9.8
2022-10-01T07:33:09.485Z,9.8
2022-10-01T07:36:09.577Z,9.8
2022-10-01T07:39:09.603Z,9.8
2022-10-01T07:42:09.509Z,9.8
2022-10-01T07:45:09.561Z,9.8
2022-10-01T07:48:09.578Z,9.8
2022-10-01T07:51:09.518Z,9.8
2022-10-01T07:54:09.586Z,9.8
2022-10-01T07:57:09.577Z,9.8
2022-10-01T08:00:09.608Z,9.8
2022-10-01T08:03:09.532Z,9.8
2022-10-01T08:06:09.559Z,9.8
2022-10-01T08:09:09.539Z,9.8
2022-10-01T08:12:09.503Z,9.8
2022-10-01T08:15:09.549Z,9.9
2022-10-01T08:18:09.621Z,9.9
2022-10-01T08:21:09.614Z,9.9
2022-10-01T08:24:09.495Z,9.9
2022-10-01T08:27:09.562Z,9.9
2022-10-01T08:30:09.607Z,9.9
2022-10-01T08:33:09.550Z,10
2022-10-01T08:36:09.605Z,10.1
2022-10-01T08:39:09.549Z,10.1
2022-10-01T08:42:09.546Z,10.1
2022-10-01T08:45:09.792Z,10.2
2022-10-01T08:48:09.564Z,10.3
2022-10-01T08:51:09.500Z,10.4
2022-10-01T08:54:09.591Z,10.4
2022-10-01T08:57:09.488Z,10.5
2022-10-01T09:00:09.695Z,10.6
2022-10-01T09:03:09.472Z,10.8
2022-10-01T09:06:09.523Z,10.9
2022-10-01T09:09:09.516Z,11
2022-10-01T09:12:09.578Z,11.1
2022-10-01T09:15:09.818Z,11.3
2022-10-01T09:18:09.582Z,11.3
2022-10-01T09:21:09.540Z,11.4
2022-10-01T09:24:09.510Z,11.5
2022-10-01T09:27:09.594Z,11.6
2022-10-01T09:30:09.577Z,11.6
2022-10-01T09:33:09.642Z,11.5
2022-10-01T09:36:09.566Z,11.6
2022-10-01T09:39:09.708Z,11.7
2022-10-01T09:42:09.552Z,11.8
2022-10-01T09:45:09.550Z,12
2022-10-01T09:48:09.589Z,12.1
2022-10-01T09:51:09.542Z,12.1
2022-10-01T09:54:09.528Z,12.2
2022-10-01T09:57:09.532Z,12.2
2022-10-01T10:00:09.595Z,12.2
2022-10-01T10:03:10.493Z,12.4
2022-10-01T10:06:09.575Z,12.9
2022-10-01T10:09:09.614Z,13.3
2022-10-01T10:12:09.503Z,13.7
2022-10-01T10:15:09.811Z,14.1
2022-10-01T10:18:09.569Z,14.3
2022-10-01T10:21:09.608Z,14.4
2022-10-01T10:24:09.563Z,14.7
2022-10-01T10:27:09.638Z,14.9
2022-10-01T10:30:09.776Z,15
2022-10-01T10:33:09.534Z,14.8
2022-10-01T10:36:09.595Z,14.8
2022-10-01T10:39:09.593Z,15.2
2022-10-01T10:42:09.563Z,15.3
2022-10-01T10:45:09.890Z,15.2
2022-10-01T10:48:09.543Z,14.6
2022-10-01T10:51:09.634Z,14
2022-10-01T10:54:09.640Z,13.8
2022-10-01T10:57:09.502Z,14.1
2022-10-01T11:00:09.667Z,14.6
2022-10-01T11:03:09.544Z,14.2
2022-10-01T11:06:09.585Z,13.8
2022-10-01T11:09:09.620Z,13.5
2022-10-01T11:12:09.681Z,13.6
2022-10-01T11:15:09.519Z,14.1
2022-10-01T11:18:09.571Z,14.4
2022-10-01T11:21:09.516Z,14.4
2022-10-01T11:24:09.567Z,15
2022-10-01T11:27:09.518Z,14.9
2022-10-01T11:30:09.600Z,14.7
2022-10-01T11:33:09.551Z,14.7
2022-10-01T11:36:09.658Z,14.9
2022-10-01T11:39:09.522Z,15.7
2022-10-01T11:42:09.547Z,16.3
2022-10-01T11:45:10.042Z,16.4
2022-10-01T11:48:09.550Z,16.1
2022-10-01T11:51:09.600Z,15.3
2022-10-01T11:54:09.536Z,14.9
2022-10-01T11:57:09.506Z,14.7
2022-10-01T12:00:09.702Z,14.7
2022-10-01T12:03:09.527Z,14.6
2022-10-01T12:06:09.583Z,14.5
2022-10-01T12:09:09.500Z,14.3
2022-10-01T12:12:09.539Z,14.1
2022-10-01T12:15:15.951Z,14.1
2022-10-01T12:18:09.708Z,14.1
2022-10-01T12:21:09.568Z,14.1
2022-10-01T12:24:09.535Z,14
2022-10-01T12:27:09.523Z,14.4
2022-10-01T12:30:09.614Z,15.1
2022-10-01T12:33:09.479Z,15.6
2022-10-01T12:36:09.627Z,15.8
2022-10-01T12:39:09.626Z,15.9
2022-10-01T12:42:09.511Z,16
2022-10-01T12:45:09.551Z,16
2022-10-01T12:48:09.503Z,16
2022-10-01T12:51:09.577Z,15.4
2022-10-01T12:54:14.900Z,15.3
2022-10-01T12:57:09.542Z,15.6
2022-10-01T13:00:09.737Z,15.9
2022-10-01T13:03:09.554Z,16.1
2022-10-01T13:06:09.573Z,16.2
2022-10-01T13:09:09.525Z,16.1
2022-10-01T13:12:09.594Z,16.1
2022-10-01T13:15:09.529Z,16.3
2022-10-01T13:18:09.565Z,16.4
2022-10-01T13:21:09.559Z,16.3
2022-10-01T13:24:09.620Z,16.3
2022-10-01T13:27:09.507Z,16.4
2022-10-01T13:30:09.783Z,16.4
2022-10-01T13:33:09.551Z,16.4
2022-10-01T13:36:09.573Z,16.4
2022-10-01T13:39:09.588Z,16.5
2022-10-01T13:42:09.579Z,16.6
2022-10-01T13:45:11.813Z,16.6
2022-10-01T13:48:09.525Z,16.8
2022-10-01T13:51:09.594Z,16.6
2022-10-01T13:54:09.508Z,16.6
2022-10-01T13:57:09.476Z,16.6
2022-10-01T14:00:09.724Z,16.6
2022-10-01T14:03:10.075Z,16.4
2022-10-01T14:06:09.558Z,16.4
2022-10-01T14:09:09.570Z,16.6
2022-10-01T14:12:09.596Z,16.7
2022-10-01T14:15:09.582Z,16.8
2022-10-01T14:18:09.549Z,16.9
2022-10-01T14:21:09.553Z,16.9
2022-10-01T14:24:09.569Z,16.8
2022-10-01T14:27:09.557Z,16.4
2022-10-01T14:30:09.553Z,16.4
2022-10-01T14:33:09.561Z,16.2
2022-10-01T14:36:09.531Z,15.9
2022-10-01T14:39:09.508Z,15.7
2022-10-01T14:42:18.552Z,15.6
2022-10-01T14:45:09.474Z,15.6
2022-10-01T14:48:09.564Z,15.6
2022-10-01T14:51:09.513Z,15.6
2022-10-01T14:54:09.581Z,15.7
2022-10-01T14:57:11.714Z,15.7
2022-10-01T15:00:09.770Z,15.8
2022-10-01T15:03:09.613Z,14.2
2022-10-01T15:06:09.579Z,12.1
2022-10-01T15:09:09.583Z,11.4
2022-10-01T15:12:09.504Z,11.1
2022-10-01T15:15:09.492Z,11
2022-10-01T15:18:09.542Z,11.1
2022-10-01T15:21:09.501Z,10.9
2022-10-01T15:24:09.574Z,10.9
2022-10-01T15:27:09.550Z,10.8
2022-10-01T15:30:09.791Z,10.8
2022-10-01T15:33:09.523Z,10.7
2022-10-01T15:36:09.587Z,10.8
2022-10-01T15:39:09.658Z,10.8
2022-10-01T15:42:09.554Z,10.8
2022-10-01T15:45:09.539Z,10.7
2022-10-01T15:48:09.521Z,10.6
2022-10-01T15:51:09.558Z,10.6
2022-10-01T15:54:09.540Z,10.6
2022-10-01T15:57:09.618Z,10.6
2022-10-01T16:00:09.508Z,10.7
2022-10-01T16:03:09.584Z,10.8
2022-10-01T16:06:09.565Z,10.9
2022-10-01T16:09:09.535Z,11
2022-10-01T16:12:09.498Z,11.1
2022-10-01T16:15:09.574Z,11
2022-10-01T16:18:09.537Z,10.9
2022-10-01T16:21:09.783Z,10.8
2022-10-01T16:24:09.503Z,10.8
2022-10-01T16:27:09.524Z,10.7
2022-10-01T16:30:14.751Z,10.6
2022-10-01T16:33:09.490Z,10.6
2022-10-01T16:36:09.491Z,10.5
2022-10-01T16:39:09.554Z,10.4
2022-10-01T16:42:32.952Z,10.3
2022-10-01T16:45:09.549Z,10.3
2022-10-01T16:48:09.575Z,10.3
2022-10-01T16:51:09.558Z,10.3
2022-10-01T16:54:09.613Z,10.3
2022-10-01T16:57:09.539Z,10.3
2022-10-01T17:00:09.542Z,10.3
2022-10-01T17:03:09.463Z,10.2
2022-10-01T17:06:09.627Z,10.1
2022-10-01T17:09:09.473Z,10.1
2022-10-01T17:12:09.453Z,10.1
2022-10-01T17:15:09.551Z,10.1
2022-10-01T17:18:09.467Z,10.1
2022-10-01T17:21:09.622Z,10.2
2022-10-01T17:24:09.629Z,10.2
2022-10-01T17:27:09.492Z,10.1
2022-10-01T17:30:09.567Z,10.1
2022-10-01T17:33:09.456Z,10.2
2022-10-01T17:36:09.487Z,10.3
2022-10-01T17:39:09.447Z,10.3
2022-10-01T17:42:09.456Z,10.3
2022-10-01T17:45:09.501Z,10.3
2022-10-01T17:48:09.519Z,10.3
2022-10-01T17:51:09.647Z,10.3
2022-10-01T17:54:09.489Z,10.4
2022-10-01T17:57:09.490Z,10.4
2022-10-01T18:00:09.706Z,10.4
2022-10-01T18:03:09.998Z,10.4
2022-10-01T18:06:09.452Z,10.4
2022-10-01T18:09:09.516Z,10.4
2022-10-01T18:12:09.536Z,10.6
2022-10-01T18:15:09.514Z,10.8
2022-10-01T18:21:09.543Z,10.8
2022-10-01T18:24:13.876Z,10.8
2022-10-01T18:27:09.537Z,10.8
2022-10-01T18:30:09.491Z,10.7
2022-10-01T18:33:09.540Z,10.7
2022-10-01T18:36:09.505Z,10.7
2022-10-01T18:39:09.557Z,10.7
2022-10-01T18:42:09.564Z,10.7
2022-10-01T18:45:09.502Z,10.7
2022-10-01T18:48:09.512Z,10.6
2022-10-01T18:51:09.508Z,10.6
2022-10-01T18:54:09.729Z,10.6
2022-10-01T18:57:09.499Z,10.6
2022-10-01T19:00:09.527Z,10.6
2022-10-01T19:03:09.511Z,10.6
2022-10-01T19:06:09.511Z,10.7
2022-10-01T19:09:09.539Z,10.7
2022-10-01T19:12:09.487Z,10.7
2022-10-01T19:15:09.529Z,10.8
2022-10-01T19:18:09.509Z,10.8
2022-10-01T19:21:09.550Z,10.8
2022-10-01T19:24:09.528Z,10.9
2022-10-01T19:27:09.613Z,10.9
2022-10-01T19:30:09.488Z,10.9
2022-10-01T19:33:09.526Z,10.9
2022-10-01T19:36:09.550Z,10.9
2022-10-01T19:39:09.552Z,10.9
2022-10-01T19:42:09.504Z,10.7
2022-10-01T19:45:09.524Z,10.6
2022-10-01T19:48:09.525Z,10.5
2022-10-01T19:51:09.471Z,10.4
2022-10-01T19:54:09.545Z,10.4
2022-10-01T19:57:09.500Z,10.3
2022-10-01T20:00:09.546Z,10.3
2022-10-01T20:03:09.514Z,10.3
2022-10-01T20:06:09.488Z,10.3
2022-10-01T20:09:09.510Z,10.3
2022-10-01T20:12:09.576Z,10.3
2022-10-01T20:15:09.507Z,10.3
2022-10-01T20:18:09.516Z,10.3
2022-10-01T20:21:09.520Z,10.2
2022-10-01T20:24:09.509Z,10.2
2022-10-01T20:27:09.521Z,10.2
2022-10-01T20:30:09.558Z,10.3
2022-10-01T20:33:09.533Z,10.4
2022-10-01T20:36:09.470Z,10.4
2022-10-01T20:39:09.525Z,10.5
2022-10-01T20:42:09.494Z,10.5
2022-10-01T20:45:09.667Z,10.4
2022-10-01T20:48:09.529Z,10.4
2022-10-01T20:51:09.504Z,10.4
2022-10-01T20:54:09.507Z,10.4
2022-10-01T20:57:09.507Z,10.3
2022-10-01T21:00:09.573Z,10.4
2022-10-01T21:03:09.501Z,10.4
2022-10-01T21:06:09.690Z,10.3
2022-10-01T21:09:09.444Z,10.3
2022-10-01T21:12:09.606Z,10.3
2022-10-01T21:15:09.474Z,10.3
2022-10-01T21:18:09.515Z,10.3
2022-10-01T21:21:09.568Z,10.2
2022-10-01T21:24:09.516Z,10.2
2022-10-01T21:27:09.502Z,10.2
2022-10-01T21:30:09.551Z,10.2
2022-10-01T21:33:11.604Z,10.2
2022-10-01T21:36:10.272Z,10.2
2022-10-01T21:39:09.441Z,10.3
2022-10-01T21:42:09.600Z,10.2
2022-10-01T21:45:09.523Z,10.3
2022-10-01T21:48:09.473Z,10.2
2022-10-01T21:51:09.479Z,10.2
2022-10-01T21:54:09.503Z,10.3
2022-10-01T21:57:09.449Z,10.3
2022-10-01T22:00:10.962Z,10.3
2022-10-01T22:03:09.490Z,10.3
2022-10-01T22:06:09.521Z,10.3
2022-10-01T22:09:09.510Z,10.2
2022-10-01T22:12:09.484Z,10.2
2022-10-01T22:15:09.483Z,10.2
2022-10-01T22:18:09.569Z,10.3
2022-10-01T22:21:09.467Z,10.3
2022-10-01T22:24:09.492Z,10.3
2022-10-01T22:27:09.521Z,10.3
2022-10-01T22:30:09.597Z,10.3
2022-10-01T22:33:09.495Z,10.3
2022-10-01T22:36:09.479Z,10.2
2022-10-01T22:39:09.512Z,10.2
2022-10-01T22:42:09.529Z,10.2
2022-10-01T22:45:09.448Z,10.1
2022-10-01T22:48:09.515Z,10.1
2022-10-01T22:51:09.454Z,10.2
2022-10-01T22:54:09.506Z,10.2
2022-10-01T22:57:09.459Z,10.1
2022-10-01T23:00:09.577Z,10.1
2022-10-01T23:03:09.485Z,10
2022-10-01T23:06:09.512Z,10.1
2022-10-01T23:09:09.545Z,10.1
2022-10-01T23:12:09.548Z,10.1
2022-10-01T23:15:09.495Z,10.1
2022-10-01T23:18:09.503Z,10.1
2022-10-01T23:21:09.449Z,10.2
2022-10-01T23:24:09.459Z,10.1
2022-10-01T23:27:09.522Z,10.1
2022-10-01T23:30:09.655Z,10.1
2022-10-01T23:33:09.541Z,10
2022-10-01T23:36:09.566Z,10.1
2022-10-01T23:39:09.537Z,10.1
2022-10-01T23:42:09.504Z,10
2022-10-01T23:45:09.479Z,10.1
2022-10-01T23:48:09.563Z,10.1
2022-10-01T23:51:09.557Z,10
2022-10-01T23:54:09.609Z,10
2022-10-01T23:57:09.515Z,10
